Terminal Aerodrome Forecast
Issued by NWS

Home | Current Version | Previous Version | Text Only | Print | Product List | Glossary On
Versions: 1 2 3 4 5 6 7 8 9 10 11 12 13 14 15
000
FTUS41 KPHI 010300 AAA
TAFPNE
TAF AMD
KPNE 010308Z 0103/0124 04004KT P6SM BKN090
      TEMPO 0105/0109 -SHRA BKN015
     FM010900 03006KT 6SM BR BKN007 OVC012
     FM011300 03008KT P6SM BKN015
     FM011700 04008KT P6SM SCT015 BKN040=

USA.gov is the U.S. government's official web portal to all federal, state and local government web resources and services.